Hillcrest, New Jersey
Current Conditions -  °F | °C
As of 3:53 PM on Monday 22 Dec 2014 (Local Time) from KCDW Reporting Station
Haze Haze  
Wind Chill: 38°   Ceiling: 1300
Heat Index: 41°   Visibility: 6mi
Dew Point: 31°   Wind: 5mph
Humidity: 67%   Direction: 70°ENE
Pressure: 30.24"   Gusts: NA
Location:  40.9187°N, 74.1942°W
Report Text: KCDW 222053Z 07004KT 6SM HZ OVC013 05/M01 A3024 RMK AO2 SLP246 T00501006 55008
Loading
Personal Weather Stations






























Interactive Weather Map New forecast layout! Learn more

10-Day Weather Forecast

Advertisements
Track Severe Weather on mobile